createdAt,value
2018-02-09T00:01:52.700Z,78.33
2018-02-09T00:04:20.229Z,80.07
2018-02-09T00:06:47.735Z,77.30
2018-02-09T00:09:15.246Z,80.17
2018-02-09T00:11:44.283Z,76.77
2018-02-09T00:14:11.784Z,81.00
2018-02-09T00:16:39.369Z,83.30
2018-02-09T00:19:07.643Z,68.20
2018-02-09T00:21:35.929Z,75.50
2018-02-09T00:24:04.197Z,73.20
2018-02-09T00:26:32.481Z,84.60
2018-02-09T00:28:59.987Z,80.93
2018-02-09T00:31:27.539Z,73.77
2018-02-09T00:33:55.041Z,72.77
2018-02-09T00:36:23.323Z,74.00
2018-02-09T00:38:51.614Z,78.97
2018-02-09T00:41:19.130Z,83.53
2018-02-09T00:43:46.656Z,83.33
2018-02-09T00:46:14.163Z,76.87
2018-02-09T00:48:42.460Z,79.30
2018-02-09T00:51:09.955Z,83.67
2018-02-09T00:53:37.464Z,76.97
2018-02-09T00:56:05.780Z,70.83
2018-02-09T00:58:33.278Z,80.73
2018-02-09T01:01:01.588Z,76.80
2018-02-09T01:03:29.088Z,75.90
2018-02-09T01:05:56.591Z,79.67
2018-02-09T01:08:24.893Z,79.17
2018-02-09T01:10:52.391Z,80.03
2018-02-09T01:13:19.932Z,76.37
2018-02-09T01:15:47.489Z,79.87
2018-02-09T01:18:15.015Z,83.10
2018-02-09T01:20:42.563Z,77.03
2018-02-09T01:23:10.088Z,80.60
2018-02-09T01:25:37.580Z,84.63
2018-02-09T01:28:05.101Z,80.97
2018-02-09T01:30:32.643Z,85.07
2018-02-09T01:33:00.152Z,86.73
2018-02-09T01:35:27.667Z,68.70
2018-02-09T01:37:55.163Z,79.20
2018-02-09T01:40:22.711Z,82.80
2018-02-09T01:42:50.968Z,78.80
2018-02-09T01:45:18.492Z,74.73
2018-02-09T01:47:45.992Z,94.00
2018-02-09T01:50:16.464Z,71.57
2018-02-09T01:52:43.973Z,80.80
2018-02-09T01:55:11.467Z,76.70
2018-02-09T01:57:38.984Z,79.87
2018-02-09T02:00:06.497Z,79.50
2018-02-09T02:02:34.008Z,72.80
2018-02-09T02:05:02.284Z,75.30
2018-02-09T02:07:30.555Z,83.00
2018-02-09T02:09:58.079Z,77.20
2018-02-09T02:12:25.577Z,82.30
2018-02-09T02:14:53.870Z,71.00
2018-02-09T02:17:21.394Z,74.43
2018-02-09T02:19:48.917Z,71.37
2018-02-09T02:22:16.407Z,77.27
2018-02-09T02:24:43.958Z,73.70
2018-02-09T02:27:11.504Z,72.50
2018-02-09T02:29:39.012Z,67.10
2018-02-09T02:32:06.552Z,77.37
2018-02-09T02:34:34.818Z,75.90
2018-02-09T02:37:02.348Z,80.50
2018-02-09T02:39:29.879Z,77.00
2018-02-09T02:41:57.396Z,84.37
2018-02-09T02:44:25.678Z,78.90
2018-02-09T02:46:53.963Z,81.30
2018-02-09T02:49:21.528Z,79.63
2018-02-09T02:51:49.032Z,76.33
2018-02-09T02:54:16.552Z,76.90
2018-02-09T02:56:44.068Z,78.77
2018-02-09T02:59:11.605Z,81.70
2018-02-09T03:01:39.116Z,76.73
2018-02-09T03:04:06.667Z,81.00
2018-02-09T03:06:34.187Z,72.97
2018-02-09T03:09:01.693Z,84.77
2018-02-09T03:11:29.212Z,76.50
2018-02-09T03:13:57.472Z,70.10
2018-02-09T03:16:24.991Z,80.80
2018-02-09T03:18:52.507Z,82.80
2018-02-09T03:21:20.011Z,67.97
2018-02-09T03:23:47.535Z,77.87
2018-02-09T03:26:15.799Z,67.90
2018-02-09T03:28:43.345Z,75.03
2018-02-09T03:31:10.884Z,58.50
2018-02-09T03:33:38.807Z,67.63
2018-02-09T03:36:06.320Z,65.67
2018-02-09T03:38:33.834Z,61.10
2018-02-09T03:41:01.347Z,58.37
2018-02-09T03:43:28.842Z,57.90
2018-02-09T03:45:56.355Z,66.67
2018-02-09T03:48:23.848Z,78.73
2018-02-09T03:50:52.136Z,68.93
2018-02-09T03:53:19.639Z,76.63
2018-02-09T03:55:47.163Z,72.57
2018-02-09T03:58:14.721Z,74.07
2018-02-09T04:00:42.243Z,71.77
2018-02-09T04:03:10.532Z,74.57
2018-02-09T04:05:38.791Z,75.80
2018-02-09T04:08:07.076Z,63.07
2018-02-09T04:10:34.651Z,73.97
2018-02-09T04:13:02.191Z,75.63
2018-02-09T04:15:30.436Z,76.80
2018-02-09T04:17:57.967Z,72.00
2018-02-09T04:20:25.478Z,75.33
2018-02-09T04:22:53.753Z,78.80
2018-02-09T04:25:22.040Z,69.13
2018-02-09T04:27:49.571Z,68.37
2018-02-09T04:30:17.485Z,72.43
2018-02-09T04:32:45.015Z,75.27
2018-02-09T04:35:13.335Z,74.17
2018-02-09T04:37:40.836Z,72.67
2018-02-09T04:40:09.147Z,64.93
2018-02-09T04:42:36.638Z,65.30
2018-02-09T04:45:04.158Z,74.37
2018-02-09T04:47:31.688Z,60.53
2018-02-09T04:49:59.196Z,54.00
2018-02-09T04:52:26.711Z,60.53
2018-02-09T04:54:55.005Z,58.27
2018-02-09T04:57:22.556Z,62.97
2018-02-09T04:59:50.058Z,59.90
2018-02-09T05:02:17.578Z,72.10
2018-02-09T05:04:45.087Z,63.37
2018-02-09T05:07:12.591Z,71.23
2018-02-09T05:09:40.143Z,69.63
2018-02-09T05:12:07.662Z,71.60
2018-02-09T05:14:35.188Z,71.10
2018-02-09T05:17:02.697Z,77.80
2018-02-09T05:19:30.991Z,71.53
2018-02-09T05:21:58.507Z,69.13
2018-02-09T05:24:26.016Z,72.90
2018-02-09T05:26:53.546Z,66.57
2018-02-09T05:29:21.814Z,64.50
2018-02-09T05:31:49.328Z,66.33
2018-02-09T05:34:16.841Z,71.23
2018-02-09T05:36:45.132Z,71.17
2018-02-09T05:39:12.645Z,77.53
2018-02-09T05:41:40.175Z,64.17
2018-02-09T05:44:07.679Z,71.30
2018-02-09T05:46:35.288Z,76.00
2018-02-09T05:49:02.803Z,77.47
2018-02-09T05:51:31.067Z,80.43
2018-02-09T05:53:58.581Z,74.73
2018-02-09T05:56:26.072Z,65.17
2018-02-09T05:58:53.620Z,75.40
2018-02-09T06:01:21.118Z,64.73
2018-02-09T06:03:49.402Z,73.93
2018-02-09T06:06:16.907Z,86.27
2018-02-09T06:08:44.430Z,80.67
2018-02-09T06:11:11.927Z,76.67
2018-02-09T06:13:39.427Z,66.70
2018-02-09T06:16:06.973Z,71.93
2018-02-09T06:18:35.244Z,63.00
2018-02-09T06:21:03.530Z,79.90
2018-02-09T06:23:31.800Z,63.60
2018-02-09T06:26:00.055Z,65.13
2018-02-09T06:28:27.573Z,73.97
2018-02-09T06:30:55.103Z,65.40
2018-02-09T06:33:22.615Z,70.57
2018-02-09T06:35:50.116Z,63.30
2018-02-09T06:38:17.664Z,67.80
2018-02-09T06:40:45.952Z,82.73
2018-02-09T06:43:13.488Z,71.83
2018-02-09T06:45:41.780Z,71.77
2018-02-09T06:48:10.059Z,66.90
2018-02-09T06:50:37.591Z,78.57
2018-02-09T06:53:05.104Z,80.23
2018-02-09T06:55:32.631Z,62.57
2018-02-09T06:58:00.136Z,74.67
2018-02-09T07:00:27.663Z,72.40
2018-02-09T07:02:55.164Z,69.97
2018-02-09T07:05:22.856Z,72.53
2018-02-09T07:07:51.140Z,72.67
2018-02-09T07:10:18.636Z,74.53
2018-02-09T07:12:46.163Z,75.87
2018-02-09T07:15:13.660Z,72.50
2018-02-09T07:17:41.227Z,69.37
2018-02-09T07:20:16.619Z,75.87
2018-02-09T07:22:44.119Z,75.43
2018-02-09T07:25:11.615Z,72.60
2018-02-09T07:27:39.976Z,77.30
2018-02-09T07:30:07.520Z,66.67
2018-02-09T07:32:35.028Z,60.20
2018-02-09T07:35:02.551Z,72.03
2018-02-09T07:37:30.060Z,77.03
2018-02-09T07:39:57.633Z,70.60
2018-02-09T07:42:25.159Z,71.93
2018-02-09T07:44:52.704Z,72.87
2018-02-09T07:47:20.987Z,70.30
2018-02-09T07:49:48.487Z,65.60
2018-02-09T07:52:16.013Z,65.23
2018-02-09T07:54:43.525Z,77.77
2018-02-09T07:57:11.044Z,65.97
2018-02-09T07:59:38.563Z,63.20
2018-02-09T08:02:06.892Z,67.20
2018-02-09T08:04:34.406Z,77.07
2018-02-09T08:07:01.913Z,63.30
2018-02-09T08:09:29.464Z,70.70
2018-02-09T08:11:56.963Z,68.43
2018-02-09T08:14:25.271Z,63.27
2018-02-09T08:16:52.764Z,68.17
2018-02-09T08:19:20.319Z,66.53
2018-02-09T08:21:47.828Z,59.60
2018-02-09T08:24:15.375Z,60.00
2018-02-09T08:26:43.641Z,61.33
2018-02-09T08:29:11.919Z,66.70
2018-02-09T08:31:40.209Z,64.83
2018-02-09T08:34:07.732Z,55.07
2018-02-09T08:36:35.259Z,61.03
2018-02-09T08:39:02.766Z,59.60
2018-02-09T08:41:30.349Z,68.60
2018-02-09T08:43:57.891Z,70.13
2018-02-09T08:46:26.164Z,64.00
2018-02-09T08:48:54.457Z,63.93
2018-02-09T08:51:21.950Z,62.87
2018-02-09T08:53:49.476Z,56.70
2018-02-09T08:56:17.013Z,58.37
2018-02-09T08:58:45.303Z,59.80
2018-02-09T09:01:12.801Z,57.73
2018-02-09T09:03:40.328Z,64.17
2018-02-09T09:06:07.882Z,69.07
2018-02-09T09:08:35.396Z,65.03
2018-02-09T09:11:02.948Z,56.63
2018-02-09T09:13:30.462Z,70.43
2018-02-09T09:15:58.019Z,60.57
2018-02-09T09:18:25.531Z,63.60
2018-02-09T09:20:53.047Z,57.33
2018-02-09T09:23:20.586Z,68.30
2018-02-09T09:25:48.094Z,53.10
2018-02-09T09:28:15.630Z,60.80
2018-02-09T09:30:43.134Z,61.77
2018-02-09T09:33:11.412Z,59.07
2018-02-09T09:35:39.717Z,47.80
2018-02-09T09:38:07.279Z,51.27
2018-02-09T09:40:34.803Z,49.33
2018-02-09T09:43:03.115Z,54.50
2018-02-09T09:45:30.705Z,55.63
2018-02-09T09:47:58.198Z,57.70
2018-02-09T09:50:26.551Z,64.03
2018-02-09T09:52:54.027Z,55.70
2018-02-09T09:55:22.293Z,62.07
2018-02-09T09:57:50.586Z,61.67
2018-02-09T10:00:19.824Z,53.97
2018-02-09T10:02:47.348Z,48.83
2018-02-09T10:05:15.656Z,60.47
2018-02-09T10:07:43.189Z,69.93
2018-02-09T10:10:10.723Z,65.93
2018-02-09T10:12:38.995Z,55.93
2018-02-09T10:15:06.520Z,50.47
2018-02-09T10:17:34.043Z,56.43
2018-02-09T10:20:01.552Z,59.27
2018-02-09T10:22:29.089Z,63.33
2018-02-09T10:24:56.584Z,60.77
2018-02-09T10:27:24.072Z,61.87
2018-02-09T10:29:51.595Z,56.90
2018-02-09T10:32:19.095Z,65.00
2018-02-09T10:34:46.624Z,59.30
2018-02-09T10:37:14.888Z,69.20
2018-02-09T10:39:42.460Z,54.77
2018-02-09T10:42:10.728Z,65.63
2018-02-09T10:44:39.014Z,58.80
2018-02-09T10:47:06.534Z,72.10
2018-02-09T10:49:34.028Z,57.77
2018-02-09T10:52:02.334Z,65.70
2018-02-09T10:54:29.875Z,63.07
2018-02-09T10:56:57.417Z,66.13
2018-02-09T10:59:25.683Z,60.60
2018-02-09T11:01:53.995Z,60.30
2018-02-09T11:04:21.500Z,62.30
2018-02-09T11:06:50.531Z,70.97
2018-02-09T11:09:23.592Z,58.73
2018-02-09T11:11:51.120Z,68.63
2018-02-09T11:14:18.644Z,62.47
2018-02-09T11:16:46.143Z,62.97
2018-02-09T11:19:13.666Z,62.77
2018-02-09T11:21:41.158Z,60.37
2018-02-09T11:24:08.684Z,65.03
2018-02-09T11:26:36.175Z,70.27
2018-02-09T11:29:03.709Z,65.07
2018-02-09T11:31:31.211Z,67.73
2018-02-09T11:33:58.712Z,64.57
2018-02-09T11:36:26.335Z,65.00
2018-02-09T11:38:53.862Z,60.20
2018-02-09T11:41:21.471Z,60.10
2018-02-09T11:43:48.988Z,62.70
2018-02-09T11:46:16.556Z,60.20
2018-02-09T11:48:44.831Z,60.67
2018-02-09T11:51:12.338Z,61.27
2018-02-09T11:53:39.876Z,60.70
2018-02-09T11:56:07.408Z,63.00
2018-02-09T11:58:34.919Z,63.40
2018-02-09T12:01:02.461Z,61.80
2018-02-09T12:03:29.998Z,52.83
2018-02-09T12:05:58.272Z,65.03
2018-02-09T12:08:26.569Z,62.43
2018-02-09T12:10:54.075Z,64.40
2018-02-09T12:13:21.594Z,65.83
2018-02-09T12:15:49.156Z,59.97
2018-02-09T12:18:16.690Z,63.97
2018-02-09T12:20:44.228Z,53.90
2018-02-09T12:23:12.574Z,54.80
2018-02-09T12:25:40.083Z,59.67
2018-02-09T12:28:07.604Z,63.07
2018-02-09T12:30:35.174Z,54.10
2018-02-09T12:33:03.454Z,58.60
2018-02-09T12:35:31.724Z,55.23
2018-02-09T12:38:00.027Z,55.90
2018-02-09T12:40:27.552Z,47.03
2018-02-09T12:42:55.096Z,59.13
2018-02-09T12:45:22.613Z,51.97
2018-02-09T12:47:50.200Z,48.17
2018-02-09T12:50:17.693Z,55.03
2018-02-09T12:52:45.993Z,50.40
2018-02-09T12:55:13.579Z,50.37
2018-02-09T12:57:41.123Z,40.30
2018-02-09T13:00:08.620Z,49.27
2018-02-09T13:02:36.118Z,48.93
2018-02-09T13:05:03.658Z,45.60
2018-02-09T13:07:31.932Z,44.53
2018-02-09T13:10:00.248Z,50.67
2018-02-09T13:12:39.672Z,36.23
2018-02-09T13:15:07.236Z,47.13
2018-02-09T13:17:34.742Z,48.10
2018-02-09T13:20:02.245Z,46.83
2018-02-09T13:22:42.738Z,46.80
2018-02-09T13:25:10.239Z,45.87
2018-02-09T13:27:38.544Z,47.17
2018-02-09T13:30:06.070Z,43.07
2018-02-09T13:32:45.560Z,49.60
2018-02-09T13:35:13.088Z,44.93
2018-02-09T13:37:40.663Z,46.97
2018-02-09T13:40:08.189Z,40.80
2018-02-09T13:42:36.476Z,37.37
2018-02-09T13:45:04.054Z,39.40
2018-02-09T13:47:31.593Z,42.93
2018-02-09T13:49:59.100Z,35.17
2018-02-09T13:52:26.672Z,43.50
2018-02-09T13:54:55.049Z,40.40
2018-02-09T13:57:22.566Z,40.80
2018-02-09T13:59:50.100Z,47.77
2018-02-09T14:02:18.390Z,47.47
2018-02-09T14:04:45.947Z,48.13
2018-02-09T14:07:13.462Z,41.90
2018-02-09T14:09:41.839Z,37.40
2018-02-09T14:12:09.527Z,48.43
2018-02-09T14:14:37.818Z,38.50
2018-02-09T14:17:05.323Z,36.60
2018-02-09T14:19:32.847Z,46.10
2018-02-09T14:22:00.388Z,38.20
2018-02-09T14:24:28.705Z,39.13
2018-02-09T14:26:56.201Z,41.47
2018-02-09T14:29:24.542Z,44.70
2018-02-09T14:31:52.068Z,40.30
2018-02-09T14:34:20.443Z,36.53
2018-02-09T14:36:48.003Z,45.93
2018-02-09T14:39:15.514Z,41.20
2018-02-09T14:41:43.062Z,37.80
2018-02-09T14:44:10.591Z,36.70
2018-02-09T14:46:38.208Z,40.20
2018-02-09T14:49:06.567Z,41.87
2018-02-09T14:51:34.083Z,32.50
2018-02-09T14:54:01.612Z,37.30
2018-02-09T14:56:29.135Z,35.03
2018-02-09T14:58:56.706Z,40.43
2018-02-09T15:01:24.211Z,41.50
2018-02-09T15:03:51.706Z,38.10
2018-02-09T15:06:19.254Z,39.03
2018-02-09T15:08:46.755Z,43.07
2018-02-09T15:11:15.084Z,44.30
2018-02-09T15:13:42.588Z,42.10
2018-02-09T15:16:10.874Z,41.43
2018-02-09T15:18:38.395Z,43.13
2018-02-09T15:21:06.720Z,38.70
2018-02-09T15:23:34.235Z,50.77
2018-02-09T15:26:01.740Z,46.10
2018-02-09T15:28:29.277Z,54.50
2018-02-09T15:30:56.778Z,41.43
2018-02-09T15:33:24.307Z,43.90
2018-02-09T15:35:51.824Z,45.07
2018-02-09T15:38:19.355Z,49.30
2018-02-09T15:40:46.867Z,38.80
2018-02-09T15:43:14.396Z,47.53
2018-02-09T15:45:41.905Z,54.43
2018-02-09T15:48:09.487Z,48.47
2018-02-09T15:50:37.009Z,48.53
2018-02-09T15:53:04.560Z,50.37
2018-02-09T15:55:32.091Z,45.87
2018-02-09T15:58:00.363Z,42.27
2018-02-09T16:00:27.885Z,51.10
2018-02-09T16:02:55.412Z,48.07
2018-02-09T16:05:22.950Z,53.53
2018-02-09T16:07:51.247Z,45.80
2018-02-09T16:10:18.768Z,52.00
2018-02-09T16:12:47.069Z,54.07
2018-02-09T16:15:14.613Z,47.97
2018-02-09T16:17:42.139Z,44.47
2018-02-09T16:20:09.648Z,57.10
2018-02-09T16:22:37.149Z,52.23
2018-02-09T16:25:04.667Z,56.70
2018-02-09T16:27:32.167Z,56.40
2018-02-09T16:29:59.723Z,54.83
2018-02-09T16:32:27.275Z,50.00
2018-02-09T16:34:54.769Z,57.80
2018-02-09T16:37:23.065Z,55.63
2018-02-09T16:39:50.595Z,54.10
2018-02-09T16:42:18.103Z,44.67
2018-02-09T16:44:45.648Z,57.80
2018-02-09T16:47:13.182Z,52.80
2018-02-09T16:49:41.466Z,60.13
2018-02-09T16:52:08.982Z,55.27
2018-02-09T16:54:36.543Z,60.67
2018-02-09T16:57:04.052Z,58.77
2018-02-09T16:59:31.566Z,57.53
2018-02-09T17:01:59.083Z,51.00
2018-02-09T17:04:26.583Z,58.40
2018-02-09T17:06:54.127Z,65.43
2018-02-09T17:09:21.646Z,60.17
2018-02-09T17:11:49.216Z,45.77
2018-02-09T17:14:16.762Z,58.77
2018-02-09T17:16:44.315Z,59.60
2018-02-09T17:19:11.816Z,51.60
2018-02-09T17:21:39.332Z,61.10
2018-02-09T17:24:06.882Z,53.80
2018-02-09T17:26:34.384Z,58.83
2018-02-09T17:29:01.960Z,54.67
2018-02-09T17:31:29.476Z,54.53
2018-02-09T17:33:56.998Z,64.00
2018-02-09T17:36:25.344Z,60.67
2018-02-09T17:38:53.131Z,57.23
2018-02-09T17:41:21.431Z,67.43
2018-02-09T17:43:48.961Z,55.03
2018-02-09T17:46:17.272Z,53.40
2018-02-09T17:48:44.798Z,57.00
2018-02-09T17:51:13.097Z,60.93
2018-02-09T17:53:40.610Z,63.43
2018-02-09T17:56:08.162Z,59.83
2018-02-09T17:58:37.189Z,56.73
2018-02-09T18:01:05.485Z,58.50
2018-02-09T18:03:33.040Z,60.87
2018-02-09T18:06:00.558Z,52.40
2018-02-09T18:08:28.171Z,59.07
2018-02-09T18:10:55.678Z,63.40
2018-02-09T18:13:23.201Z,64.67
2018-02-09T18:15:50.721Z,55.60
2018-02-09T18:18:19.040Z,53.83
2018-02-09T18:20:46.592Z,62.77
2018-02-09T18:23:14.117Z,62.07
2018-02-09T18:25:42.398Z,57.80
2018-02-09T18:28:09.959Z,63.70
2018-02-09T18:30:37.505Z,53.67
2018-02-09T18:33:05.908Z,60.13
2018-02-09T18:35:33.429Z,61.13
2018-02-09T18:38:01.754Z,65.40
2018-02-09T18:40:29.300Z,60.70
2018-02-09T18:42:56.888Z,63.57
2018-02-09T18:45:24.405Z,58.63
2018-02-09T18:47:51.969Z,29.50
2018-02-09T18:50:19.492Z,34.73
2018-02-09T18:52:47.789Z,49.70
2018-02-09T18:55:15.345Z,48.53
2018-02-09T18:57:42.845Z,49.67
2018-02-09T19:00:10.409Z,45.00
2018-02-09T19:02:37.941Z,46.93
2018-02-09T19:05:05.451Z,48.77
2018-02-09T19:07:33.019Z,52.80
2018-02-09T19:10:00.564Z,53.87
2018-02-09T19:12:28.110Z,49.17
2018-02-09T19:14:55.625Z,47.50
2018-02-09T19:17:23.218Z,51.63
2018-02-09T19:19:50.753Z,55.67
2018-02-09T19:22:18.314Z,58.20
2018-02-09T19:24:45.819Z,54.63
2018-02-09T19:27:13.384Z,58.83
2018-02-09T19:29:41.680Z,56.27
2018-02-09T19:32:09.211Z,57.87
2018-02-09T19:34:37.544Z,51.87
2018-02-09T19:37:05.057Z,61.03
2018-02-09T19:39:33.386Z,60.03
2018-02-09T19:42:00.897Z,57.57
2018-02-09T19:44:29.248Z,52.67
2018-02-09T19:46:57.561Z,49.87
2018-02-09T19:49:25.104Z,53.87
2018-02-09T19:51:53.405Z,54.23
2018-02-09T19:54:20.903Z,52.90
2018-02-09T19:56:48.506Z,59.17
2018-02-09T19:59:16.052Z,56.00
2018-02-09T20:01:44.401Z,59.47
2018-02-09T20:04:11.931Z,52.60
2018-02-09T20:06:39.445Z,59.37
2018-02-09T20:09:06.987Z,56.77
2018-02-09T20:11:35.267Z,48.70
2018-02-09T20:14:02.864Z,52.10
2018-02-09T20:16:30.398Z,50.40
2018-02-09T20:18:58.716Z,54.63
2018-02-09T20:21:26.241Z,58.13
2018-02-09T20:23:53.773Z,57.10
2018-02-09T20:26:21.356Z,60.40
2018-02-09T20:28:48.870Z,54.23
2018-02-09T20:31:16.442Z,52.20
2018-02-09T20:33:43.984Z,56.87
2018-02-09T20:36:11.509Z,54.97
2018-02-09T20:38:39.080Z,54.53
2018-02-09T20:41:06.662Z,48.80
2018-02-09T20:43:34.221Z,50.83
2018-02-09T20:46:01.757Z,54.23
2018-02-09T20:48:29.272Z,56.50
2018-02-09T20:50:57.575Z,51.93
2018-02-09T20:53:25.114Z,59.83
2018-02-09T20:55:52.666Z,56.70
2018-02-09T20:58:20.180Z,53.03
2018-02-09T21:00:47.717Z,49.63
2018-02-09T21:03:15.227Z,47.27
2018-02-09T21:05:43.557Z,46.97
2018-02-09T21:08:11.087Z,56.80
2018-02-09T21:10:38.604Z,57.97
2018-02-09T21:13:06.152Z,53.73
2018-02-09T21:15:33.699Z,53.90
2018-02-09T21:18:01.252Z,54.60
2018-02-09T21:20:28.808Z,56.20
2018-02-09T21:22:56.345Z,55.77
2018-02-09T21:25:23.882Z,52.07
2018-02-09T21:27:51.454Z,49.60
2018-02-09T21:30:19.051Z,54.80
2018-02-09T21:32:46.564Z,56.00
2018-02-09T21:35:14.115Z,48.53
2018-02-09T21:37:42.400Z,52.33
2018-02-09T21:40:09.952Z,50.80
2018-02-09T21:42:38.272Z,50.80
2018-02-09T21:45:05.787Z,59.77
2018-02-09T21:47:33.320Z,62.20
2018-02-09T21:50:00.837Z,51.13
2018-02-09T21:52:28.380Z,56.30
2018-02-09T21:54:55.893Z,61.90
2018-02-09T21:57:23.440Z,52.87
2018-02-09T21:59:50.975Z,49.37
2018-02-09T22:02:18.521Z,49.73
2018-02-09T22:04:46.034Z,53.80
2018-02-09T22:07:14.325Z,59.27
2018-02-09T22:09:41.871Z,54.33
2018-02-09T22:12:10.326Z,55.53
2018-02-09T22:14:37.833Z,52.93
2018-02-09T22:17:05.356Z,60.20
2018-02-09T22:19:33.652Z,55.73
2018-02-09T22:22:01.174Z,57.40
2018-02-09T22:24:28.725Z,63.27
2018-02-09T22:26:56.268Z,55.20
2018-02-09T22:29:23.800Z,56.27
2018-02-09T22:31:51.308Z,50.80
2018-02-09T22:34:18.839Z,57.93
2018-02-09T22:36:46.369Z,56.33
2018-02-09T22:39:13.916Z,61.07
2018-02-09T22:41:41.465Z,51.50
2018-02-09T22:44:09.776Z,53.47
2018-02-09T22:46:37.320Z,52.10
2018-02-09T22:49:04.826Z,52.40
2018-02-09T22:51:32.399Z,59.17
2018-02-09T22:53:59.916Z,56.53
2018-02-09T22:56:27.426Z,56.57
2018-02-09T22:58:55.720Z,60.60
2018-02-09T23:01:23.284Z,60.17
2018-02-09T23:03:50.829Z,58.43
2018-02-09T23:06:19.120Z,56.23
2018-02-09T23:08:46.834Z,55.27
2018-02-09T23:11:14.546Z,53.23
2018-02-09T23:13:42.295Z,55.23
2018-02-09T23:16:09.904Z,55.13
2018-02-09T23:18:37.513Z,57.27
2018-02-09T23:21:05.101Z,53.17
2018-02-09T23:23:32.620Z,56.83
2018-02-09T23:26:00.936Z,59.20
2018-02-09T23:28:28.499Z,61.57
2018-02-09T23:30:56.019Z,53.90
2018-02-09T23:33:24.307Z,53.57
2018-02-09T23:35:51.839Z,58.30
2018-02-09T23:38:20.152Z,57.63
2018-02-09T23:40:48.123Z,55.80
2018-02-09T23:43:15.644Z,57.90
2018-02-09T23:45:43.960Z,51.43
2018-02-09T23:48:11.484Z,59.23
2018-02-09T23:50:39.759Z,58.30
2018-02-09T23:53:08.084Z,56.53
2018-02-09T23:55:35.588Z,62.30
2018-02-09T23:58:03.894Z,54.93
